sensor_id;sensor_type;location;lat;lon;timestamp;pressure;altitude;pressure_sealevel;temperature;humidity
50103;BME280;35993;52.604;10.078;2023-02-23T00:01:48;100775.47;;;6.71;100.00
50103;BME280;35993;52.604;10.078;2023-02-23T00:04:14;100776.25;;;6.65;100.00
50103;BME280;35993;52.604;10.078;2023-02-23T00:06:39;100774.75;;;6.62;100.00
50103;BME280;35993;52.604;10.078;2023-02-23T00:09:05;100769.56;;;6.61;100.00
50103;BME280;35993;52.604;10.078;2023-02-23T00:11:36;100778.03;;;6.58;100.00
50103;BME280;35993;52.604;10.078;2023-02-23T00:14:02;100770.16;;;6.56;100.00
50103;BME280;35993;52.604;10.078;2023-02-23T00:16:28;100773.59;;;6.50;100.00
50103;BME280;35993;52.604;10.078;2023-02-23T00:18:55;100765.22;;;6.45;100.00
50103;BME280;35993;52.604;10.078;2023-02-23T00:21:27;100774.53;;;6.42;100.00
50103;BME280;35993;52.604;10.078;2023-02-23T00:24:04;100771.91;;;6.49;100.00
50103;BME280;35993;52.604;10.078;2023-02-23T00:26:31;100762.81;;;6.50;100.00
50103;BME280;35993;52.604;10.078;2023-02-23T00:29:07;100772.09;;;6.47;100.00
50103;BME280;35993;52.604;10.078;2023-02-23T00:31:35;100765.22;;;6.45;100.00
50103;BME280;35993;52.604;10.078;2023-02-23T00:34:04;100760.94;;;6.35;100.00
50103;BME280;35993;52.604;10.078;2023-02-23T00:36:32;100761.34;;;6.32;100.00
50103;BME280;35993;52.604;10.078;2023-02-23T00:39:01;100759.19;;;6.28;100.00
50103;BME280;35993;52.604;10.078;2023-02-23T00:41:30;100759.78;;;6.23;100.00
50103;BME280;35993;52.604;10.078;2023-02-23T00:43:57;100769.22;;;6.19;100.00
50103;BME280;35993;52.604;10.078;2023-02-23T00:46:27;100768.59;;;6.17;100.00
50103;BME280;35993;52.604;10.078;2023-02-23T00:48:54;100763.13;;;6.10;100.00
50103;BME280;35993;52.604;10.078;2023-02-23T00:51:21;100764.78;;;6.11;100.00
50103;BME280;35993;52.604;10.078;2023-02-23T00:53:47;100767.59;;;6.18;100.00
50103;BME280;35993;52.604;10.078;2023-02-23T00:56:15;100781.22;;;6.16;100.00
50103;BME280;35993;52.604;10.078;2023-02-23T00:58:41;100780.88;;;6.19;100.00
50103;BME280;35993;52.604;10.078;2023-02-23T01:01:09;100773.31;;;6.15;100.00
50103;BME280;35993;52.604;10.078;2023-02-23T01:03:36;100772.59;;;6.21;100.00
50103;BME280;35993;52.604;10.078;2023-02-23T01:06:04;100771.28;;;6.17;100.00
50103;BME280;35993;52.604;10.078;2023-02-23T01:08:36;100774.19;;;6.15;100.00
50103;BME280;35993;52.604;10.078;2023-02-23T01:11:13;100777.44;;;6.11;100.00
50103;BME280;35993;52.604;10.078;2023-02-23T01:13:42;100778.81;;;6.06;100.00
50103;BME280;35993;52.604;10.078;2023-02-23T01:16:10;100776.03;;;6.00;100.00
50103;BME280;35993;52.604;10.078;2023-02-23T01:18:37;100781.06;;;6.03;100.00
50103;BME280;35993;52.604;10.078;2023-02-23T01:21:04;100785.63;;;6.02;100.00
50103;BME280;35993;52.604;10.078;2023-02-23T01:23:31;100786.13;;;5.98;100.00
50103;BME280;35993;52.604;10.078;2023-02-23T01:25:57;100778.69;;;5.85;100.00
50103;BME280;35993;52.604;10.078;2023-02-23T01:28:23;100778.38;;;5.65;100.00
50103;BME280;35993;52.604;10.078;2023-02-23T01:30:49;100783.47;;;5.60;100.00
50103;BME280;35993;52.604;10.078;2023-02-23T01:33:14;100784.13;;;5.77;100.00
50103;BME280;35993;52.604;10.078;2023-02-23T01:35:40;100786.00;;;5.76;100.00
50103;BME280;35993;52.604;10.078;2023-02-23T01:38:09;100787.78;;;5.84;100.00
50103;BME280;35993;52.604;10.078;2023-02-23T01:40:35;100783.16;;;5.93;100.00
50103;BME280;35993;52.604;10.078;2023-02-23T01:43:19;100782.78;;;5.81;100.00
50103;BME280;35993;52.604;10.078;2023-02-23T01:45:53;100785.66;;;5.94;100.00
50103;BME280;35993;52.604;10.078;2023-02-23T01:48:21;100785.91;;;5.84;100.00
50103;BME280;35993;52.604;10.078;2023-02-23T01:50:54;100787.03;;;5.75;100.00
50103;BME280;35993;52.604;10.078;2023-02-23T01:53:22;100790.16;;;5.64;100.00
50103;BME280;35993;52.604;10.078;2023-02-23T01:55:53;100780.72;;;5.83;100.00
50103;BME280;35993;52.604;10.078;2023-02-23T01:58:22;100781.72;;;5.82;100.00
50103;BME280;35993;52.604;10.078;2023-02-23T02:00:56;100783.59;;;5.81;100.00
50103;BME280;35993;52.604;10.078;2023-02-23T02:03:38;100783.22;;;5.84;100.00
50103;BME280;35993;52.604;10.078;2023-02-23T02:06:07;100779.03;;;5.82;100.00
50103;BME280;35993;52.604;10.078;2023-02-23T02:08:36;100781.72;;;5.82;100.00
50103;BME280;35993;52.604;10.078;2023-02-23T02:11:14;100772.63;;;5.83;100.00
50103;BME280;35993;52.604;10.078;2023-02-23T02:14:03;100777.00;;;5.84;100.00
50103;BME280;35993;52.604;10.078;2023-02-23T02:19:37;100781.28;;;5.78;100.00
50103;BME280;35993;52.604;10.078;2023-02-23T02:30:46;100774.25;;;5.92;100.00
50103;BME280;35993;52.604;10.078;2023-02-23T02:39:04;100773.56;;;5.90;100.00
50103;BME280;35993;52.604;10.078;2023-02-23T02:41:46;100773.94;;;5.87;100.00
50103;BME280;35993;52.604;10.078;2023-02-23T02:44:27;100780.56;;;5.99;100.00
50103;BME280;35993;52.604;10.078;2023-02-23T02:47:00;100777.06;;;5.99;100.00
50103;BME280;35993;52.604;10.078;2023-02-23T02:49:50;100774.88;;;5.94;100.00
50103;BME280;35993;52.604;10.078;2023-02-23T02:52:34;100775.81;;;5.86;100.00
50103;BME280;35993;52.604;10.078;2023-02-23T02:55:16;100777.53;;;5.79;100.00
50103;BME280;35993;52.604;10.078;2023-02-23T02:57:44;100774.84;;;5.79;100.00
50103;BME280;35993;52.604;10.078;2023-02-23T03:00:22;100777.81;;;5.84;100.00
50103;BME280;35993;52.604;10.078;2023-02-23T03:03:36;100778.78;;;5.91;100.00
50103;BME280;35993;52.604;10.078;2023-02-23T03:06:27;100773.38;;;5.91;100.00
50103;BME280;35993;52.604;10.078;2023-02-23T03:12:44;100779.03;;;6.05;100.00
50103;BME280;35993;52.604;10.078;2023-02-23T03:22:10;100780.84;;;6.04;100.00
50103;BME280;35993;52.604;10.078;2023-02-23T03:25:08;100778.53;;;6.01;100.00
50103;BME280;35993;52.604;10.078;2023-02-23T03:27:57;100779.03;;;6.05;100.00
50103;BME280;35993;52.604;10.078;2023-02-23T03:34:01;100782.44;;;5.99;100.00
50103;BME280;35993;52.604;10.078;2023-02-23T03:36:51;100783.63;;;5.96;100.00
50103;BME280;35993;52.604;10.078;2023-02-23T03:39:44;100787.72;;;5.92;100.00
50103;BME280;35993;52.604;10.078;2023-02-23T03:42:34;100788.34;;;5.94;100.00
50103;BME280;35993;52.604;10.078;2023-02-23T03:45:22;100789.19;;;5.95;100.00
50103;BME280;35993;52.604;10.078;2023-02-23T03:48:09;100788.53;;;5.93;100.00
50103;BME280;35993;52.604;10.078;2023-02-23T03:50:57;100788.72;;;5.91;100.00
50103;BME280;35993;52.604;10.078;2023-02-23T03:53:48;100784.16;;;5.91;100.00
50103;BME280;35993;52.604;10.078;2023-02-23T03:56:37;100794.66;;;5.86;100.00
50103;BME280;35993;52.604;10.078;2023-02-23T03:59:25;100796.63;;;5.93;100.00
50103;BME280;35993;52.604;10.078;2023-02-23T04:02:15;100797.44;;;5.93;100.00
50103;BME280;35993;52.604;10.078;2023-02-23T04:05:05;100797.81;;;5.90;100.00
50103;BME280;35993;52.604;10.078;2023-02-23T04:07:52;100796.41;;;6.02;100.00
50103;BME280;35993;52.604;10.078;2023-02-23T04:10:45;100796.03;;;6.20;100.00
50103;BME280;35993;52.604;10.078;2023-02-23T04:13:33;100792.59;;;6.27;100.00
50103;BME280;35993;52.604;10.078;2023-02-23T04:16:07;100796.00;;;6.35;100.00
50103;BME280;35993;52.604;10.078;2023-02-23T04:18:35;100787.75;;;6.37;100.00
50103;BME280;35993;52.604;10.078;2023-02-23T04:21:02;100781.59;;;6.28;100.00
50103;BME280;35993;52.604;10.078;2023-02-23T04:23:28;100789.16;;;6.18;100.00
50103;BME280;35993;52.604;10.078;2023-02-23T04:25:54;100792.78;;;6.10;100.00
50103;BME280;35993;52.604;10.078;2023-02-23T04:28:21;100794.13;;;6.06;100.00
50103;BME280;35993;52.604;10.078;2023-02-23T04:30:47;100794.91;;;6.00;100.00
50103;BME280;35993;52.604;10.078;2023-02-23T04:33:13;100794.22;;;5.98;100.00
50103;BME280;35993;52.604;10.078;2023-02-23T04:35:39;100795.19;;;6.05;100.00
50103;BME280;35993;52.604;10.078;2023-02-23T04:38:05;100796.09;;;6.12;100.00
50103;BME280;35993;52.604;10.078;2023-02-23T04:40:31;100797.22;;;6.18;100.00
50103;BME280;35993;52.604;10.078;2023-02-23T04:42:56;100793.59;;;6.26;100.00
50103;BME280;35993;52.604;10.078;2023-02-23T04:45:23;100792.00;;;6.31;100.00
50103;BME280;35993;52.604;10.078;2023-02-23T04:47:49;100784.59;;;6.33;100.00
50103;BME280;35993;52.604;10.078;2023-02-23T04:50:18;100792.56;;;6.42;100.00
50103;BME280;35993;52.604;10.078;2023-02-23T04:52:44;100793.84;;;6.46;100.00
50103;BME280;35993;52.604;10.078;2023-02-23T04:55:16;100801.03;;;6.38;100.00
50103;BME280;35993;52.604;10.078;2023-02-23T04:57:42;100800.41;;;6.21;100.00
50103;BME280;35993;52.604;10.078;2023-02-23T05:00:08;100795.63;;;6.23;100.00
50103;BME280;35993;52.604;10.078;2023-02-23T05:02:34;100803.44;;;6.18;100.00
50103;BME280;35993;52.604;10.078;2023-02-23T05:04:59;100791.84;;;6.18;100.00
50103;BME280;35993;52.604;10.078;2023-02-23T05:07:25;100801.88;;;6.24;100.00
50103;BME280;35993;52.604;10.078;2023-02-23T05:09:50;100794.34;;;6.34;100.00
50103;BME280;35993;52.604;10.078;2023-02-23T05:12:16;100796.75;;;6.44;100.00
50103;BME280;35993;52.604;10.078;2023-02-23T05:14:41;100798.22;;;6.47;100.00
50103;BME280;35993;52.604;10.078;2023-02-23T05:17:07;100794.44;;;6.41;100.00
50103;BME280;35993;52.604;10.078;2023-02-23T05:19:33;100797.47;;;6.38;100.00
50103;BME280;35993;52.604;10.078;2023-02-23T05:21:58;100800.00;;;6.39;100.00
50103;BME280;35993;52.604;10.078;2023-02-23T05:24:24;100802.97;;;6.15;100.00
50103;BME280;35993;52.604;10.078;2023-02-23T05:26:50;100806.97;;;6.04;100.00
50103;BME280;35993;52.604;10.078;2023-02-23T05:29:15;100807.63;;;6.06;100.00
50103;BME280;35993;52.604;10.078;2023-02-23T05:31:41;100805.13;;;6.04;100.00
50103;BME280;35993;52.604;10.078;2023-02-23T05:34:07;100816.16;;;6.10;100.00
50103;BME280;35993;52.604;10.078;2023-02-23T05:36:33;100802.63;;;6.18;100.00
50103;BME280;35993;52.604;10.078;2023-02-23T05:38:58;100813.09;;;6.28;100.00
50103;BME280;35993;52.604;10.078;2023-02-23T05:41:24;100807.63;;;6.36;100.00
50103;BME280;35993;52.604;10.078;2023-02-23T05:43:50;100808.94;;;6.40;100.00
50103;BME280;35993;52.604;10.078;2023-02-23T05:46:20;100815.06;;;6.49;100.00
50103;BME280;35993;52.604;10.078;2023-02-23T05:48:46;100810.50;;;6.49;100.00
50103;BME280;35993;52.604;10.078;2023-02-23T05:51:13;100823.63;;;6.52;100.00
50103;BME280;35993;52.604;10.078;2023-02-23T05:53:42;100815.69;;;6.51;100.00
50103;BME280;35993;52.604;10.078;2023-02-23T05:56:11;100812.91;;;6.44;100.00
50103;BME280;35993;52.604;10.078;2023-02-23T05:58:37;100805.69;;;6.45;100.00
50103;BME280;35993;52.604;10.078;2023-02-23T06:01:03;100811.72;;;6.47;100.00
50103;BME280;35993;52.604;10.078;2023-02-23T06:03:29;100819.44;;;6.50;100.00
50103;BME280;35993;52.604;10.078;2023-02-23T06:05:56;100815.34;;;6.54;100.00
50103;BME280;35993;52.604;10.078;2023-02-23T06:08:23;100820.53;;;6.55;100.00
50103;BME280;35993;52.604;10.078;2023-02-23T06:10:51;100829.28;;;6.58;100.00
50103;BME280;35993;52.604;10.078;2023-02-23T06:13:16;100824.53;;;6.60;100.00
50103;BME280;35993;52.604;10.078;2023-02-23T06:15:42;100833.16;;;6.70;100.00
50103;BME280;35993;52.604;10.078;2023-02-23T06:18:08;100834.63;;;6.72;100.00
50103;BME280;35993;52.604;10.078;2023-02-23T06:20:34;100841.78;;;6.80;100.00
50103;BME280;35993;52.604;10.078;2023-02-23T06:23:00;100842.66;;;6.81;100.00
50103;BME280;35993;52.604;10.078;2023-02-23T06:25:26;100843.28;;;6.83;100.00
50103;BME280;35993;52.604;10.078;2023-02-23T06:27:51;100840.56;;;6.83;100.00
50103;BME280;35993;52.604;10.078;2023-02-23T06:30:18;100841.09;;;6.71;100.00
50103;BME280;35993;52.604;10.078;2023-02-23T06:32:44;100848.72;;;6.68;100.00
50103;BME280;35993;52.604;10.078;2023-02-23T06:35:13;100845.44;;;6.72;100.00
50103;BME280;35993;52.604;10.078;2023-02-23T06:37:39;100852.78;;;6.79;100.00
50103;BME280;35993;52.604;10.078;2023-02-23T06:40:05;100849.25;;;6.78;100.00
50103;BME280;35993;52.604;10.078;2023-02-23T06:42:31;100852.88;;;6.85;100.00
50103;BME280;35993;52.604;10.078;2023-02-23T06:44:56;100856.00;;;6.89;100.00
50103;BME280;35993;52.604;10.078;2023-02-23T06:47:22;100862.91;;;6.92;100.00
50103;BME280;35993;52.604;10.078;2023-02-23T06:49:48;100863.28;;;6.88;100.00
50103;BME280;35993;52.604;10.078;2023-02-23T06:52:13;100858.16;;;6.94;100.00
50103;BME280;35993;52.604;10.078;2023-02-23T06:54:39;100860.41;;;6.90;100.00
50103;BME280;35993;52.604;10.078;2023-02-23T06:57:07;100854.38;;;6.88;100.00
50103;BME280;35993;52.604;10.078;2023-02-23T06:59:33;100855.38;;;6.87;100.00
50103;BME280;35993;52.604;10.078;2023-02-23T07:01:58;100854.19;;;6.89;100.00
50103;BME280;35993;52.604;10.078;2023-02-23T07:04:24;100858.16;;;6.94;100.00
50103;BME280;35993;52.604;10.078;2023-02-23T07:06:50;100862.53;;;6.95;100.00
50103;BME280;35993;52.604;10.078;2023-02-23T07:09:16;100864.09;;;7.04;100.00
50103;BME280;35993;52.604;10.078;2023-02-23T07:11:42;100866.97;;;7.02;100.00
50103;BME280;35993;52.604;10.078;2023-02-23T07:14:12;100866.22;;;7.09;100.00
50103;BME280;35993;52.604;10.078;2023-02-23T07:16:38;100867.25;;;7.08;100.00
50103;BME280;35993;52.604;10.078;2023-02-23T07:19:05;100868.94;;;7.09;100.00
50103;BME280;35993;52.604;10.078;2023-02-23T07:21:32;100868.47;;;7.05;100.00
50103;BME280;35993;52.604;10.078;2023-02-23T07:23:58;100871.44;;;7.10;100.00
50103;BME280;35993;52.604;10.078;2023-02-23T07:26:24;100866.84;;;7.11;100.00
50103;BME280;35993;52.604;10.078;2023-02-23T07:28:49;100874.41;;;7.15;100.00
50103;BME280;35993;52.604;10.078;2023-02-23T07:31:15;100880.25;;;7.19;100.00
50103;BME280;35993;52.604;10.078;2023-02-23T07:33:41;100873.19;;;7.18;100.00
50103;BME280;35993;52.604;10.078;2023-02-23T07:36:07;100880.81;;;7.14;100.00
50103;BME280;35993;52.604;10.078;2023-02-23T07:38:32;100876.28;;;7.15;100.00
50103;BME280;35993;52.604;10.078;2023-02-23T07:40:58;100874.00;;;7.18;100.00
50103;BME280;35993;52.604;10.078;2023-02-23T07:43:24;100875.06;;;7.17;100.00
50103;BME280;35993;52.604;10.078;2023-02-23T07:46:07;100877.56;;;7.19;100.00
50103;BME280;35993;52.604;10.078;2023-02-23T07:48:33;100885.94;;;7.24;100.00
50103;BME280;35993;52.604;10.078;2023-02-23T07:50:58;100882.00;;;7.27;100.00
50103;BME280;35993;52.604;10.078;2023-02-23T07:53:24;100884.50;;;7.28;100.00
50103;BME280;35993;52.604;10.078;2023-02-23T07:55:59;100887.88;;;7.30;100.00
50103;BME280;35993;52.604;10.078;2023-02-23T07:58:26;100888.03;;;7.29;100.00
50103;BME280;35993;52.604;10.078;2023-02-23T08:00:52;100885.03;;;7.38;100.00
50103;BME280;35993;52.604;10.078;2023-02-23T08:03:17;100883.81;;;7.41;100.00
50103;BME280;35993;52.604;10.078;2023-02-23T08:05:43;100889.16;;;7.34;100.00
50103;BME280;35993;52.604;10.078;2023-02-23T08:08:10;100888.28;;;7.34;100.00
50103;BME280;35993;52.604;10.078;2023-02-23T08:10:36;100895.38;;;7.35;100.00
50103;BME280;35993;52.604;10.078;2023-02-23T08:13:02;100884.22;;;7.38;100.00
50103;BME280;35993;52.604;10.078;2023-02-23T08:15:28;100895.84;;;7.38;100.00
50103;BME280;35993;52.604;10.078;2023-02-23T08:17:54;100898.94;;;7.35;100.00
50103;BME280;35993;52.604;10.078;2023-02-23T08:20:19;100899.94;;;7.34;100.00
50103;BME280;35993;52.604;10.078;2023-02-23T08:22:45;100899.94;;;7.34;100.00
50103;BME280;35993;52.604;10.078;2023-02-23T08:25:10;100908.06;;;7.34;100.00
50103;BME280;35993;52.604;10.078;2023-02-23T08:27:37;100902.66;;;7.34;100.00
50103;BME280;35993;52.604;10.078;2023-02-23T08:30:03;100903.88;;;7.32;100.00
50103;BME280;35993;52.604;10.078;2023-02-23T08:32:33;100905.97;;;7.36;100.00
50103;BME280;35993;52.604;10.078;2023-02-23T08:35:00;100914.88;;;7.30;100.00
50103;BME280;35993;52.604;10.078;2023-02-23T08:37:28;100915.88;;;7.29;100.00
50103;BME280;35993;52.604;10.078;2023-02-23T08:39:54;100908.69;;;7.36;100.00
50103;BME280;35993;52.604;10.078;2023-02-23T08:42:20;100915.75;;;7.37;100.00
50103;BME280;35993;52.604;10.078;2023-02-23T08:44:45;100912.03;;;7.38;100.00
50103;BME280;35993;52.604;10.078;2023-02-23T08:47:13;100918.41;;;7.31;100.00
50103;BME280;35993;52.604;10.078;2023-02-23T08:49:41;100919.31;;;7.38;100.00
50103;BME280;35993;52.604;10.078;2023-02-23T08:52:07;100921.22;;;7.44;100.00
50103;BME280;35993;52.604;10.078;2023-02-23T08:54:33;100926.94;;;7.49;100.00
50103;BME280;35993;52.604;10.078;2023-02-23T08:56:58;100931.88;;;7.46;100.00
50103;BME280;35993;52.604;10.078;2023-02-23T08:59:25;100927.59;;;7.36;100.00
50103;BME280;35993;52.604;10.078;2023-02-23T09:01:51;100932.69;;;7.46;100.00
50103;BME280;35993;52.604;10.078;2023-02-23T09:04:17;100931.72;;;7.54;100.00
50103;BME280;35993;52.604;10.078;2023-02-23T09:06:43;100937.13;;;7.54;100.00
50103;BME280;35993;52.604;10.078;2023-02-23T09:09:10;100929.94;;;7.61;100.00
50103;BME280;35993;52.604;10.078;2023-02-23T09:11:36;100928.47;;;7.59;100.00
50103;BME280;35993;52.604;10.078;2023-02-23T09:14:01;100933.47;;;7.62;100.00
50103;BME280;35993;52.604;10.078;2023-02-23T09:16:27;100937.91;;;7.48;100.00
50103;BME280;35993;52.604;10.078;2023-02-23T09:18:52;100937.91;;;7.48;100.00
50103;BME280;35993;52.604;10.078;2023-02-23T09:21:19;100949.38;;;7.50;100.00
50103;BME280;35993;52.604;10.078;2023-02-23T09:23:50;100953.75;;;7.51;100.00
50103;BME280;35993;52.604;10.078;2023-02-23T09:26:17;100938.56;;;7.50;100.00
50103;BME280;35993;52.604;10.078;2023-02-23T09:28:43;100947.88;;;7.47;100.00
50103;BME280;35993;52.604;10.078;2023-02-23T09:31:12;100945.03;;;7.55;100.00
50103;BME280;35993;52.604;10.078;2023-02-23T09:33:38;100943.75;;;7.51;100.00
50103;BME280;35993;52.604;10.078;2023-02-23T09:36:09;100945.75;;;7.43;100.00
50103;BME280;35993;52.604;10.078;2023-02-23T09:38:38;100946.41;;;7.45;100.00
50103;BME280;35993;52.604;10.078;2023-02-23T09:43:57;100948.53;;;7.49;100.00
50103;BME280;35993;52.604;10.078;2023-02-23T09:49:23;100946.84;;;7.48;100.00
50103;BME280;35993;52.604;10.078;2023-02-23T09:51:52;100948.91;;;7.46;100.00
50103;BME280;35993;52.604;10.078;2023-02-23T09:54:28;100953.94;;;7.49;100.00
50103;BME280;35993;52.604;10.078;2023-02-23T09:56:55;100962.59;;;7.45;100.00
50103;BME280;35993;52.604;10.078;2023-02-23T09:59:23;100960.16;;;7.50;100.00
50103;BME280;35993;52.604;10.078;2023-02-23T10:05:03;100966.75;;;7.62;100.00
50103;BME280;35993;52.604;10.078;2023-02-23T10:07:42;100962.94;;;7.57;100.00
50103;BME280;35993;52.604;10.078;2023-02-23T10:15:43;100968.72;;;7.53;100.00
50103;BME280;35993;52.604;10.078;2023-02-23T10:23:27;100969.47;;;7.62;100.00
50103;BME280;35993;52.604;10.078;2023-02-23T10:25:56;100971.03;;;7.57;100.00
50103;BME280;35993;52.604;10.078;2023-02-23T10:28:24;100969.34;;;7.55;100.00
50103;BME280;35993;52.604;10.078;2023-02-23T10:30:51;100977.94;;;7.59;100.00
50103;BME280;35993;52.604;10.078;2023-02-23T10:33:34;100972.91;;;7.56;100.00
50103;BME280;35993;52.604;10.078;2023-02-23T10:36:13;100975.03;;;7.61;100.00
50103;BME280;35993;52.604;10.078;2023-02-23T10:38:41;100971.31;;;7.62;100.00
50103;BME280;35993;52.604;10.078;2023-02-23T10:41:07;100971.03;;;7.57;100.00
50103;BME280;35993;52.604;10.078;2023-02-23T10:43:34;100977.66;;;7.54;100.00
50103;BME280;35993;52.604;10.078;2023-02-23T10:46:00;100969.75;;;7.52;100.00
50103;BME280;35993;52.604;10.078;2023-02-23T10:48:32;100977.03;;;7.52;100.00
50103;BME280;35993;52.604;10.078;2023-02-23T10:51:00;100976.38;;;7.50;100.00
50103;BME280;35993;52.604;10.078;2023-02-23T10:53:34;100973.53;;;7.58;100.00
50103;BME280;35993;52.604;10.078;2023-02-23T10:56:02;100972.72;;;7.58;100.00
50103;BME280;35993;52.604;10.078;2023-02-23T10:58:29;100968.72;;;7.53;100.00
50103;BME280;35993;52.604;10.078;2023-02-23T11:00:59;100972.91;;;7.56;100.00
50103;BME280;35993;52.604;10.078;2023-02-23T11:03:34;100971.31;;;7.62;100.00
50103;BME280;35993;52.604;10.078;2023-02-23T11:06:00;100965.13;;;7.68;100.00
50103;BME280;35993;52.604;10.078;2023-02-23T11:08:34;100966.22;;;7.52;100.00
50103;BME280;35993;52.604;10.078;2023-02-23T11:11:05;100967.50;;;7.56;100.00
50103;BME280;35993;52.604;10.078;2023-02-23T11:16:07;100964.94;;;7.69;100.00
50103;BME280;35993;52.604;10.078;2023-02-23T11:18:35;100958.97;;;7.74;100.00
50103;BME280;35993;52.604;10.078;2023-02-23T11:21:00;100962.13;;;7.78;100.00
50103;BME280;35993;52.604;10.078;2023-02-23T11:23:34;100968.63;;;7.83;100.00
50103;BME280;35993;52.604;10.078;2023-02-23T11:26:03;100962.25;;;7.91;100.00
50103;BME280;35993;52.604;10.078;2023-02-23T11:28:36;100961.63;;;7.89;100.00
50103;BME280;35993;52.604;10.078;2023-02-23T11:31:22;100957.81;;;7.83;100.00
50103;BME280;35993;52.604;10.078;2023-02-23T11:33:53;100952.81;;;7.80;100.00
50103;BME280;35993;52.604;10.078;2023-02-23T11:39:00;100951.63;;;7.68;100.00
50103;BME280;35993;52.604;10.078;2023-02-23T11:41:26;100944.81;;;7.72;100.00
50103;BME280;35993;52.604;10.078;2023-02-23T11:43:57;100951.56;;;7.83;100.00
50103;BME280;35993;52.604;10.078;2023-02-23T11:46:24;100948.03;;;7.82;100.00
50103;BME280;35993;52.604;10.078;2023-02-23T11:48:52;100945.00;;;7.70;100.00
50103;BME280;35993;52.604;10.078;2023-02-23T11:51:32;100943.31;;;7.69;100.00
50103;BME280;35993;52.604;10.078;2023-02-23T11:53:59;100941.47;;;7.70;100.00
50103;BME280;35993;52.604;10.078;2023-02-23T11:56:27;100940.88;;;7.75;100.00
50103;BME280;35993;52.604;10.078;2023-02-23T11:58:58;100938.38;;;7.73;100.00
50103;BME280;35993;52.604;10.078;2023-02-23T12:04:01;100937.56;;;7.73;100.00
50103;BME280;35993;52.604;10.078;2023-02-23T12:06:34;100935.28;;;7.76;100.00
50103;BME280;35993;52.604;10.078;2023-02-23T12:09:05;100941.06;;;7.73;100.00
50103;BME280;35993;52.604;10.078;2023-02-23T12:11:40;100937.91;;;7.69;100.00
50103;BME280;35993;52.604;10.078;2023-02-23T12:17:02;100925.81;;;7.65;100.00
50103;BME280;35993;52.604;10.078;2023-02-23T12:19:43;100931.03;;;7.67;100.00
50103;BME280;35993;52.604;10.078;2023-02-23T12:22:15;100920.63;;;7.64;100.00
50103;BME280;35993;52.604;10.078;2023-02-23T12:24:51;100920.22;;;7.67;100.00
50103;BME280;35993;52.604;10.078;2023-02-23T12:27:20;100926.47;;;7.67;100.00
50103;BME280;35993;52.604;10.078;2023-02-23T12:32:51;100928.03;;;7.77;100.00
50103;BME280;35993;52.604;10.078;2023-02-23T12:35:30;100921.19;;;7.81;100.00
50103;BME280;35993;52.604;10.078;2023-02-23T12:38:02;100924.56;;;7.83;100.00
50103;BME280;35993;52.604;10.078;2023-02-23T12:40:33;100916.91;;;7.86;100.00
50103;BME280;35993;52.604;10.078;2023-02-23T12:45:50;100921.69;;;7.91;100.00
50103;BME280;35993;52.604;10.078;2023-02-23T12:51:07;100921.84;;;8.04;100.00
50103;BME280;35993;52.604;10.078;2023-02-23T12:53:41;100919.59;;;8.08;100.00
50103;BME280;35993;52.604;10.078;2023-02-23T12:59:16;100910.31;;;7.96;100.00
50103;BME280;35993;52.604;10.078;2023-02-23T13:01:56;100906.88;;;8.09;100.00
50103;BME280;35993;52.604;10.078;2023-02-23T13:10:05;100913.97;;;8.10;100.00
50103;BME280;35993;52.604;10.078;2023-02-23T13:12:43;100913.06;;;8.02;100.00
50103;BME280;35993;52.604;10.078;2023-02-23T13:20:50;100908.19;;;7.91;100.00
50103;BME280;35993;52.604;10.078;2023-02-23T13:26:13;100912.00;;;7.75;100.00
50103;BME280;35993;52.604;10.078;2023-02-23T13:29:02;100905.38;;;7.78;100.00
50103;BME280;35993;52.604;10.078;2023-02-23T13:31:32;100901.38;;;7.74;100.00
50103;BME280;35993;52.604;10.078;2023-02-23T13:34:00;100901.81;;;7.77;100.00
50103;BME280;35993;52.604;10.078;2023-02-23T13:36:28;100901.81;;;7.77;100.00
50103;BME280;35993;52.604;10.078;2023-02-23T13:42:14;100898.75;;;7.80;100.00
50103;BME280;35993;52.604;10.078;2023-02-23T13:53:26;100902.53;;;7.86;100.00
50103;BME280;35993;52.604;10.078;2023-02-23T13:55:57;100903.03;;;7.75;100.00
50103;BME280;35993;52.604;10.078;2023-02-23T13:58:29;100906.25;;;7.63;100.00
50103;BME280;35993;52.604;10.078;2023-02-23T14:01:09;100905.28;;;7.71;100.00
50103;BME280;35993;52.604;10.078;2023-02-23T14:03:51;100899.47;;;7.67;100.00
50103;BME280;35993;52.604;10.078;2023-02-23T14:06:18;100906.59;;;7.75;100.00
50103;BME280;35993;52.604;10.078;2023-02-23T14:08:51;100902.03;;;7.76;100.00
50103;BME280;35993;52.604;10.078;2023-02-23T14:11:45;100911.34;;;7.73;100.00
50103;BME280;35993;52.604;10.078;2023-02-23T14:14:42;100910.44;;;7.66;100.00
50103;BME280;35993;52.604;10.078;2023-02-23T14:20:04;100913.78;;;7.68;100.00
50103;BME280;35993;52.604;10.078;2023-02-23T14:22:36;100914.38;;;7.63;100.00
50103;BME280;35993;52.604;10.078;2023-02-23T14:28:24;100917.53;;;7.67;100.00
50103;BME280;35993;52.604;10.078;2023-02-23T14:31:03;100920.16;;;7.60;100.00
50103;BME280;35993;52.604;10.078;2023-02-23T14:39:01;100910.84;;;7.63;100.00
50103;BME280;35993;52.604;10.078;2023-02-23T14:41:54;100914.97;;;7.59;100.00
50103;BME280;35993;52.604;10.078;2023-02-23T14:44:25;100917.06;;;7.63;100.00
50103;BME280;35993;52.604;10.078;2023-02-23T14:46:55;100917.84;;;7.57;100.00
50103;BME280;35993;52.604;10.078;2023-02-23T14:49:30;100909.16;;;7.62;100.00